createdAt,value
2022-11-16T00:01:57.146Z,100376.03
2022-11-16T00:04:25.016Z,100404.44
2022-11-16T00:06:52.894Z,100394.38
2022-11-16T00:09:23.855Z,100396.94
2022-11-16T00:11:55.291Z,100388.44
2022-11-16T00:14:24.599Z,100396.69
2022-11-16T00:16:52.739Z,100360.06
2022-11-16T00:19:20.555Z,100383.75
2022-11-16T00:21:48.393Z,100392.06
2022-11-16T00:24:17.608Z,100382.16
2022-11-16T00:26:46.119Z,100386.28
2022-11-16T00:29:17.873Z,100390.69
2022-11-16T00:31:46.568Z,100364.50
2022-11-16T00:34:14.955Z,100365.47
2022-11-16T00:36:42.829Z,100385.69
2022-11-16T00:39:12.336Z,100363.06
2022-11-16T00:41:40.110Z,100391.31
2022-11-16T00:44:08.279Z,100389.13
2022-11-16T00:46:37.417Z,100379.81
2022-11-16T00:49:05.706Z,100374.53
2022-11-16T00:51:33.593Z,100365.81
2022-11-16T00:54:01.722Z,100337.00
2022-11-16T00:56:29.489Z,100368.84
2022-11-16T00:58:57.235Z,100361.28
2022-11-16T01:01:25.073Z,100366.72
2022-11-16T01:03:54.337Z,100357.84
2022-11-16T01:06:23.433Z,100352.81
2022-11-16T01:08:51.391Z,100360.25
2022-11-16T01:11:37.040Z,100360.69
2022-11-16T01:14:07.106Z,100360.56
2022-11-16T01:16:35.227Z,100363.19
2022-11-16T01:19:05.556Z,100361.69
2022-11-16T01:21:33.410Z,100358.56
2022-11-16T01:24:01.241Z,100327.47
2022-11-16T01:26:28.988Z,100350.31
2022-11-16T01:28:56.778Z,100361.88
2022-11-16T01:31:24.483Z,100351.53
2022-11-16T01:33:52.280Z,100355.25
2022-11-16T01:36:21.402Z,100313.25
2022-11-16T01:38:49.220Z,100300.94
2022-11-16T01:41:19.389Z,100351.66
2022-11-16T01:43:53.276Z,100345.56
2022-11-16T01:46:21.400Z,100344.19
2022-11-16T01:48:53.720Z,100309.84
2022-11-16T01:51:23.577Z,100344.84
2022-11-16T01:53:52.100Z,100334.84
2022-11-16T01:56:19.877Z,100338.53
2022-11-16T01:58:47.940Z,100330.69
2022-11-16T02:01:15.738Z,100337.59
2022-11-16T02:03:43.515Z,100336.13
2022-11-16T02:06:31.568Z,100334.06
2022-11-16T02:09:30.780Z,100332.44
2022-11-16T02:12:14.964Z,100298.28
2022-11-16T02:15:02.824Z,100333.50
2022-11-16T02:17:37.507Z,100324.19
2022-11-16T02:20:40.076Z,100320.44
2022-11-16T02:23:51.949Z,100324.81
2022-11-16T02:26:44.830Z,100330.47
2022-11-16T02:29:21.882Z,100313.41
2022-11-16T02:31:54.139Z,100318.81
2022-11-16T02:34:23.935Z,100312.28
2022-11-16T02:36:55.531Z,100320.25
2022-11-16T02:39:28.162Z,100308.03
2022-11-16T02:41:58.096Z,100321.06
2022-11-16T02:44:31.646Z,100308.03
2022-11-16T02:47:05.075Z,100324.69
2022-11-16T02:49:35.884Z,100307.75
2022-11-16T02:52:04.030Z,100315.31
2022-11-16T02:54:31.745Z,100307.97
2022-11-16T02:57:23.604Z,100313.19
2022-11-16T02:59:57.672Z,100309.66
2022-11-16T03:02:32.022Z,100312.59
2022-11-16T03:05:03.664Z,100303.44
2022-11-16T03:07:39.045Z,100313.69
2022-11-16T03:10:08.036Z,100302.44
2022-11-16T03:12:35.895Z,100301.81
2022-11-16T03:15:08.419Z,100279.28
2022-11-16T03:17:41.915Z,100305.81
2022-11-16T03:20:13.844Z,100297.19
2022-11-16T03:22:45.108Z,100306.34
2022-11-16T03:25:15.091Z,100303.72
2022-11-16T03:27:51.187Z,100290.19
2022-11-16T03:30:23.800Z,100302.69
2022-11-16T03:32:58.378Z,100292.72
2022-11-16T03:35:29.070Z,100291.50
2022-11-16T03:37:59.575Z,100283.56
2022-11-16T03:40:31.481Z,100276.91
2022-11-16T03:43:00.573Z,100295.97
2022-11-16T03:45:30.519Z,100287.31
2022-11-16T03:47:58.750Z,100296.66
2022-11-16T03:50:26.908Z,100281.75
2022-11-16T03:52:54.594Z,100280.75
2022-11-16T03:55:22.266Z,100294.28
2022-11-16T03:57:49.956Z,100288.66
2022-11-16T04:00:17.642Z,100296.63
2022-11-16T04:02:46.801Z,100292.03
2022-11-16T04:05:31.884Z,100291.28
2022-11-16T04:08:17.319Z,100283.22
2022-11-16T04:11:02.717Z,100286.38
2022-11-16T04:13:50.638Z,100265.53
2022-11-16T04:16:36.158Z,100262.94
2022-11-16T04:19:22.814Z,100277.13
2022-11-16T04:22:12.795Z,100273.13
2022-11-16T04:24:43.239Z,100280.00
2022-11-16T04:27:32.187Z,100293.56
2022-11-16T04:30:02.415Z,100296.88
2022-11-16T04:32:48.169Z,100292.13
2022-11-16T04:35:34.694Z,100292.88
2022-11-16T04:38:02.500Z,100306.91
2022-11-16T04:40:30.168Z,100306.59
2022-11-16T04:42:59.745Z,100303.13
2022-11-16T04:45:46.289Z,100293.75
2022-11-16T04:48:15.836Z,100294.00
2022-11-16T04:50:45.380Z,100287.72
2022-11-16T04:53:13.564Z,100287.50
2022-11-16T04:55:41.406Z,100294.81
2022-11-16T04:58:09.226Z,100286.97
2022-11-16T05:00:37.036Z,100299.25
2022-11-16T05:03:05.915Z,100295.88
2022-11-16T05:05:33.786Z,100293.88
2022-11-16T05:08:02.898Z,100291.47
2022-11-16T05:10:30.662Z,100285.53
2022-11-16T05:12:58.943Z,100286.59
2022-11-16T05:15:26.611Z,100294.75
2022-11-16T05:17:55.816Z,100281.53
2022-11-16T05:20:40.824Z,100289.00
2022-11-16T05:23:30.659Z,100290.41
2022-11-16T05:25:58.366Z,100296.63
2022-11-16T05:28:26.124Z,100281.28
2022-11-16T05:30:53.925Z,100281.34
2022-11-16T05:33:21.759Z,100299.16
2022-11-16T05:35:50.824Z,100281.56
2022-11-16T05:38:20.465Z,100303.47
2022-11-16T05:40:48.246Z,100303.03
2022-11-16T05:43:15.994Z,100290.84
2022-11-16T05:45:44.143Z,100307.25
2022-11-16T05:48:12.165Z,100301.53
2022-11-16T05:50:42.730Z,100307.84
2022-11-16T05:53:11.024Z,100304.69
2022-11-16T05:55:40.129Z,100307.28
2022-11-16T05:58:07.834Z,100297.03
2022-11-16T06:00:35.609Z,100303.81
2022-11-16T06:03:03.391Z,100315.50
2022-11-16T06:05:33.273Z,100284.22
2022-11-16T06:08:04.122Z,100298.56
2022-11-16T06:10:32.447Z,100300.25
2022-11-16T06:13:01.601Z,100292.09
2022-11-16T06:15:29.529Z,100316.50
2022-11-16T06:17:57.482Z,100312.72
2022-11-16T06:20:25.268Z,100315.34
2022-11-16T06:22:53.109Z,100297.50
2022-11-16T06:25:21.134Z,100311.72
2022-11-16T06:27:49.024Z,100325.09
2022-11-16T06:30:18.522Z,100322.91
2022-11-16T06:32:46.331Z,100279.56
2022-11-16T06:35:14.090Z,100329.28
2022-11-16T06:37:41.878Z,100330.00
2022-11-16T06:40:11.036Z,100321.16
2022-11-16T06:42:38.758Z,100332.28
2022-11-16T06:45:07.269Z,100325.06
2022-11-16T06:47:36.316Z,100340.53
2022-11-16T06:50:04.423Z,100329.78
2022-11-16T06:52:32.275Z,100312.00
2022-11-16T06:55:00.106Z,100314.63
2022-11-16T06:57:27.807Z,100330.00
2022-11-16T06:59:55.538Z,100338.97
2022-11-16T07:02:23.701Z,100340.34
2022-11-16T07:04:52.781Z,100343.22
2022-11-16T07:07:20.599Z,100333.38
2022-11-16T07:09:48.461Z,100324.63
2022-11-16T07:12:16.277Z,100328.63
2022-11-16T07:14:45.479Z,100333.97
2022-11-16T07:17:13.433Z,100341.44
2022-11-16T07:19:41.196Z,100327.88
2022-11-16T07:22:10.380Z,100333.81
2022-11-16T07:24:38.099Z,100329.09
2022-11-16T07:27:05.901Z,100331.44
2022-11-16T07:29:33.670Z,100338.03
2022-11-16T07:32:01.463Z,100343.63
2022-11-16T07:34:29.982Z,100340.97
2022-11-16T07:36:57.916Z,100343.09
2022-11-16T07:39:29.141Z,100341.22
2022-11-16T07:41:59.450Z,100342.66
2022-11-16T07:44:27.918Z,100341.38
2022-11-16T07:46:56.348Z,100325.53
2022-11-16T07:49:24.162Z,100334.81
2022-11-16T07:51:52.001Z,100329.44
2022-11-16T07:54:19.714Z,100335.44
2022-11-16T07:56:49.555Z,100331.47
2022-11-16T07:59:17.412Z,100340.53
2022-11-16T08:01:47.545Z,100336.06
2022-11-16T08:04:17.528Z,100340.25
2022-11-16T08:06:46.859Z,100334.72
2022-11-16T08:09:14.820Z,100323.66
2022-11-16T08:11:42.690Z,100314.25
2022-11-16T08:14:12.951Z,100294.53
2022-11-16T08:16:40.952Z,100329.44
2022-11-16T08:19:09.323Z,100342.88
2022-11-16T08:21:37.404Z,100334.53
2022-11-16T08:24:05.930Z,100302.84
2022-11-16T08:26:33.979Z,100331.22
2022-11-16T08:29:02.019Z,100326.09
2022-11-16T08:31:31.173Z,100291.81
2022-11-16T08:34:00.771Z,100341.84
2022-11-16T08:36:28.653Z,100335.44
2022-11-16T08:38:56.367Z,100334.47
2022-11-16T08:41:24.045Z,100336.97
2022-11-16T08:43:53.347Z,100320.38
2022-11-16T08:46:21.700Z,100335.38
2022-11-16T08:48:50.713Z,100336.31
2022-11-16T08:51:20.364Z,100333.84
2022-11-16T08:53:49.284Z,100333.63
2022-11-16T08:56:36.866Z,100337.31
2022-11-16T08:59:04.877Z,100318.81
2022-11-16T09:01:33.535Z,100333.91
2022-11-16T09:04:02.714Z,100339.59
2022-11-16T09:06:30.524Z,100339.44
2022-11-16T09:08:58.820Z,100347.69
2022-11-16T09:11:27.045Z,100336.91
2022-11-16T09:13:56.613Z,100346.38
2022-11-16T09:16:26.684Z,100337.16
2022-11-16T09:18:54.902Z,100342.28
2022-11-16T09:21:25.743Z,100346.09
2022-11-16T09:23:54.831Z,100363.94
2022-11-16T09:26:23.356Z,100361.31
2022-11-16T09:28:56.837Z,100365.78
2022-11-16T09:31:24.789Z,100357.41
2022-11-16T09:33:52.468Z,100361.03
2022-11-16T09:36:20.792Z,100361.13
2022-11-16T09:41:50.963Z,100349.22
2022-11-16T09:44:35.469Z,100381.66
2022-11-16T09:47:03.809Z,100369.16
2022-11-16T09:49:34.658Z,100375.66
2022-11-16T09:52:06.216Z,100376.06
2022-11-16T09:54:39.031Z,100374.09
2022-11-16T09:57:12.783Z,100384.31
2022-11-16T09:59:45.365Z,100395.22
2022-11-16T10:02:22.101Z,100383.97
2022-11-16T10:04:58.285Z,100384.66
2022-11-16T10:07:29.983Z,100381.84
2022-11-16T10:09:59.167Z,100398.00
2022-11-16T10:12:31.486Z,100389.00
2022-11-16T10:15:20.571Z,100389.78
2022-11-16T10:17:59.408Z,100399.91
2022-11-16T10:20:45.937Z,100392.09
2022-11-16T10:23:22.402Z,100401.88
2022-11-16T10:25:55.413Z,100405.66
2022-11-16T10:28:46.103Z,100403.44
2022-11-16T10:31:23.349Z,100399.16
2022-11-16T10:33:55.597Z,100401.41
2022-11-16T10:36:27.714Z,100401.03
2022-11-16T10:38:57.066Z,100364.38
2022-11-16T10:41:32.600Z,100390.66
2022-11-16T10:44:00.914Z,100380.50
2022-11-16T10:46:34.642Z,100389.81
2022-11-16T10:49:07.886Z,100383.47
2022-11-16T10:51:35.557Z,100381.66
2022-11-16T10:54:04.622Z,100372.50
2022-11-16T10:56:39.582Z,100373.56
2022-11-16T10:59:09.076Z,100371.75
2022-11-16T11:01:39.529Z,100373.78
2022-11-16T11:04:19.789Z,100368.06
2022-11-16T11:06:49.411Z,100359.78
2022-11-16T11:09:24.637Z,100367.13
2022-11-16T11:12:19.703Z,100363.84
2022-11-16T11:15:26.324Z,100384.78
2022-11-16T11:18:13.601Z,100366.44
2022-11-16T11:20:45.312Z,100371.97
2022-11-16T11:23:17.115Z,100383.38
2022-11-16T11:25:52.521Z,100366.16
2022-11-16T11:28:26.353Z,100352.66
2022-11-16T11:31:01.341Z,100357.91
2022-11-16T11:33:33.997Z,100366.75
2022-11-16T11:36:06.729Z,100360.91
2022-11-16T11:38:35.900Z,100357.09
2022-11-16T11:41:06.015Z,100363.53
2022-11-16T11:43:35.630Z,100370.78
2022-11-16T11:46:10.676Z,100361.13
2022-11-16T11:48:47.944Z,100355.47
2022-11-16T11:51:23.119Z,100370.78
2022-11-16T11:53:56.344Z,100366.19
2022-11-16T11:56:25.351Z,100354.16
2022-11-16T11:58:55.907Z,100391.28
2022-11-16T12:01:42.876Z,100380.81
2022-11-16T12:04:55.861Z,100368.13
2022-11-16T12:07:40.422Z,100366.38
2022-11-16T12:10:19.762Z,100376.00
2022-11-16T12:13:01.773Z,100366.50
2022-11-16T12:15:43.260Z,100353.94
2022-11-16T12:18:24.388Z,100358.34
2022-11-16T12:21:02.122Z,100365.06
2022-11-16T12:23:45.935Z,100348.06
2022-11-16T12:26:26.674Z,100352.44
2022-11-16T12:29:06.483Z,100352.78
2022-11-16T12:32:11.675Z,100355.25
2022-11-16T12:34:57.234Z,100349.47
2022-11-16T12:37:32.036Z,100326.66
2022-11-16T12:40:18.237Z,100355.69
2022-11-16T12:42:53.374Z,100356.97
2022-11-16T12:45:38.599Z,100348.25
2022-11-16T12:48:36.877Z,100364.09
2022-11-16T12:51:12.440Z,100368.16
2022-11-16T12:53:57.052Z,100356.25
2022-11-16T12:56:35.213Z,100357.75
2022-11-16T12:59:31.982Z,100357.91
2022-11-16T13:02:12.261Z,100351.19
2022-11-16T13:04:45.676Z,100352.22
2022-11-16T13:07:18.171Z,100360.94
2022-11-16T13:09:50.272Z,100349.03
2022-11-16T13:12:23.299Z,100357.06
2022-11-16T13:14:54.198Z,100351.09
2022-11-16T13:17:25.284Z,100350.59
2022-11-16T13:20:14.934Z,100331.53
2022-11-16T13:22:50.874Z,100350.69
2022-11-16T13:25:23.669Z,100353.03
2022-11-16T13:27:58.347Z,100339.00
2022-11-16T13:30:30.247Z,100345.06
2022-11-16T13:33:14.724Z,100345.44
2022-11-16T13:35:44.124Z,100342.91
2022-11-16T13:38:13.563Z,100343.00
2022-11-16T13:40:42.336Z,100339.44
2022-11-16T13:43:20.221Z,100348.16
2022-11-16T13:45:57.043Z,100341.66
2022-11-16T13:48:30.629Z,100351.22
2022-11-16T13:51:02.961Z,100331.63
2022-11-16T13:56:28.305Z,100342.16
2022-11-16T13:58:58.291Z,100344.59
2022-11-16T14:01:26.567Z,100342.44
2022-11-16T14:04:34.011Z,100333.09
2022-11-16T14:07:03.090Z,100336.03
2022-11-16T14:09:45.206Z,100346.09
2022-11-16T14:12:58.628Z,100346.09
2022-11-16T14:15:29.543Z,100351.53
2022-11-16T14:18:03.917Z,100346.75
2022-11-16T14:20:43.805Z,100351.91
2022-11-16T14:23:45.561Z,100352.00
2022-11-16T14:26:19.960Z,100342.88
2022-11-16T14:29:11.818Z,100359.28
2022-11-16T14:31:53.470Z,100344.03
2022-11-16T14:34:25.511Z,100346.38
2022-11-16T14:36:54.232Z,100351.09
2022-11-16T14:39:32.665Z,100335.84
2022-11-16T14:42:03.832Z,100351.53
2022-11-16T14:44:35.675Z,100365.72
2022-11-16T14:47:04.907Z,100364.03
2022-11-16T14:49:35.811Z,100354.78
2022-11-16T14:52:06.114Z,100353.94
2022-11-16T14:54:40.066Z,100358.34
2022-11-16T14:57:14.082Z,100354.13
2022-11-16T14:59:42.097Z,100358.00
2022-11-16T15:02:20.162Z,100356.06
2022-11-16T15:04:49.785Z,100350.16
2022-11-16T15:07:18.683Z,100273.56
2022-11-16T15:09:50.575Z,100340.94
2022-11-16T15:12:37.346Z,100336.72
2022-11-16T15:15:09.087Z,100334.44
2022-11-16T15:17:37.731Z,100340.88
2022-11-16T15:20:17.193Z,100337.13
2022-11-16T15:22:47.218Z,100333.75
2022-11-16T15:25:28.700Z,100337.13
2022-11-16T15:27:57.957Z,100344.75
2022-11-16T15:30:28.475Z,100344.84
2022-11-16T15:32:56.947Z,100344.66
2022-11-16T15:35:26.709Z,100355.56
2022-11-16T15:38:05.280Z,100347.09
2022-11-16T15:40:35.524Z,100348.44
2022-11-16T15:43:05.982Z,100336.22
2022-11-16T15:45:35.140Z,100349.16
2022-11-16T15:48:04.936Z,100352.84
2022-11-16T15:50:32.852Z,100349.09
2022-11-16T15:53:00.726Z,100351.63
2022-11-16T15:55:34.165Z,100344.69
2022-11-16T15:58:13.250Z,100345.69
2022-11-16T16:00:41.988Z,100347.31
2022-11-16T16:03:20.095Z,100359.03
2022-11-16T16:05:48.803Z,100348.41
2022-11-16T16:08:31.590Z,100033.66
2022-11-16T16:11:05.247Z,100342.88
2022-11-16T16:13:36.743Z,100346.63
2022-11-16T16:16:27.337Z,100348.25
2022-11-16T16:18:58.145Z,100346.53
2022-11-16T16:21:28.939Z,100349.38
2022-11-16T16:23:58.293Z,100336.75
2022-11-16T16:26:26.044Z,100353.22
2022-11-16T16:28:55.144Z,100352.50
2022-11-16T16:31:22.910Z,100337.47
2022-11-16T16:33:50.697Z,100351.66
2022-11-16T16:36:18.433Z,100346.88
2022-11-16T16:38:46.162Z,100341.59
2022-11-16T16:41:24.016Z,100350.84
2022-11-16T16:43:52.120Z,100348.50
2022-11-16T16:46:21.782Z,100367.59
2022-11-16T16:48:49.484Z,100363.97
2022-11-16T16:51:17.255Z,100366.94
2022-11-16T16:53:45.085Z,100363.81
2022-11-16T16:56:16.117Z,100362.06
2022-11-16T16:58:44.177Z,100364.59
2022-11-16T17:01:12.238Z,100363.56
2022-11-16T17:03:41.466Z,100360.38
2022-11-16T17:06:09.321Z,100360.06
2022-11-16T17:08:38.164Z,100321.28
2022-11-16T17:11:06.812Z,100368.88
2022-11-16T17:13:34.934Z,100361.44
2022-11-16T17:16:05.705Z,100365.72
2022-11-16T17:18:33.359Z,100373.03
2022-11-16T17:21:06.198Z,100363.19
2022-11-16T17:23:34.369Z,100373.13
2022-11-16T17:26:05.768Z,100369.28
2022-11-16T17:28:33.575Z,100371.81
2022-11-16T17:31:05.080Z,100364.84
2022-11-16T17:33:34.951Z,100362.91
2022-11-16T17:36:03.934Z,100358.84
2022-11-16T17:38:33.305Z,100361.69
2022-11-16T17:41:05.232Z,100362.50
2022-11-16T17:43:33.703Z,100373.03
2022-11-16T17:46:06.210Z,100343.81
2022-11-16T17:48:34.645Z,100352.06
2022-11-16T17:51:02.363Z,100374.66
2022-11-16T17:53:32.825Z,100364.63
2022-11-16T17:56:02.549Z,100372.06
2022-11-16T17:58:31.400Z,100351.38
2022-11-16T18:00:59.553Z,100359.25
2022-11-16T18:03:28.292Z,100315.94
2022-11-16T18:06:02.779Z,100378.91
2022-11-16T18:08:30.658Z,100388.75
2022-11-16T18:10:58.539Z,100377.16
2022-11-16T18:13:27.656Z,100375.44
2022-11-16T18:15:55.350Z,100372.47
2022-11-16T18:18:23.033Z,100376.50
2022-11-16T18:20:50.938Z,100378.94
2022-11-16T18:23:18.618Z,100375.63
2022-11-16T18:25:46.291Z,100375.63
2022-11-16T18:28:13.966Z,100389.88
2022-11-16T18:30:42.935Z,100381.63
2022-11-16T18:33:11.086Z,100382.88
2022-11-16T18:35:38.828Z,100364.97
2022-11-16T18:38:07.217Z,100369.75
2022-11-16T18:40:35.065Z,100378.13
2022-11-16T18:43:02.881Z,100368.06
2022-11-16T18:45:30.613Z,100373.16
2022-11-16T18:47:59.778Z,100377.00
2022-11-16T18:50:27.457Z,100376.81
2022-11-16T18:52:55.132Z,100373.47
2022-11-16T18:55:22.779Z,100375.81
2022-11-16T18:57:50.641Z,100335.56
2022-11-16T19:00:20.304Z,100371.47
2022-11-16T19:02:48.062Z,100373.97
2022-11-16T19:05:17.526Z,100366.63
2022-11-16T19:07:45.351Z,100368.56
2022-11-16T19:10:13.173Z,100362.91
2022-11-16T19:12:41.016Z,100362.88
2022-11-16T19:15:09.199Z,100369.66
2022-11-16T19:17:48.208Z,100342.59
2022-11-16T19:20:26.220Z,100358.75
2022-11-16T19:22:54.096Z,100353.50
2022-11-16T19:25:21.945Z,100350.06
2022-11-16T19:27:49.695Z,100339.09
2022-11-16T19:30:18.103Z,100353.38
2022-11-16T19:32:46.121Z,100347.72
2022-11-16T19:35:16.091Z,100343.25
2022-11-16T19:37:45.239Z,100339.63
2022-11-16T19:40:13.896Z,100336.94
2022-11-16T19:42:42.953Z,100348.28
2022-11-16T19:45:11.924Z,100354.22
2022-11-16T19:47:39.735Z,100354.16
2022-11-16T19:50:10.038Z,100350.25
2022-11-16T19:52:37.831Z,100325.31
2022-11-16T19:55:07.555Z,100355.31
2022-11-16T19:57:35.340Z,100358.88
2022-11-16T20:00:03.072Z,100347.91
2022-11-16T20:02:30.852Z,100358.28
2022-11-16T20:04:58.514Z,100337.66
2022-11-16T20:07:26.270Z,100334.00
2022-11-16T20:09:54.635Z,100346.06
2022-11-16T20:12:23.882Z,100349.44
2022-11-16T20:14:51.764Z,100341.53
2022-11-16T20:17:19.497Z,100349.00
2022-11-16T20:19:47.160Z,100341.59
2022-11-16T20:22:15.597Z,100340.19
2022-11-16T20:24:43.381Z,100330.47
2022-11-16T20:27:11.120Z,100339.56
2022-11-16T20:29:40.204Z,100335.63
2022-11-16T20:32:07.959Z,100351.66
2022-11-16T20:34:35.745Z,100329.97
2022-11-16T20:37:03.575Z,100326.59
2022-11-16T20:39:31.336Z,100334.59
2022-11-16T20:41:59.069Z,100331.31
2022-11-16T20:44:26.890Z,100323.91
2022-11-16T20:46:56.080Z,100332.31
2022-11-16T20:49:23.779Z,100332.09
2022-11-16T20:51:51.840Z,100338.88
2022-11-16T20:54:19.530Z,100333.00
2022-11-16T20:56:48.161Z,100337.66
2022-11-16T20:59:16.189Z,100295.56
2022-11-16T21:01:47.769Z,100325.34
2022-11-16T21:04:17.265Z,100322.16
2022-11-16T21:06:45.071Z,100326.91
2022-11-16T21:09:13.084Z,100328.75
2022-11-16T21:11:54.711Z,100329.81
2022-11-16T21:14:23.507Z,100326.53
2022-11-16T21:16:51.199Z,100335.34
2022-11-16T21:19:20.482Z,100325.34
2022-11-16T21:21:48.271Z,100321.34
2022-11-16T21:24:15.997Z,100324.13
2022-11-16T21:26:43.831Z,100311.88
2022-11-16T21:29:11.576Z,100311.41
2022-11-16T21:31:39.358Z,100296.16
2022-11-16T21:34:07.531Z,100303.63
2022-11-16T21:36:37.009Z,100301.06
2022-11-16T21:39:04.955Z,100318.13
2022-11-16T21:41:32.834Z,100311.34
2022-11-16T21:44:00.564Z,100284.25
2022-11-16T21:46:28.393Z,100296.91
2022-11-16T21:48:57.194Z,100289.31
2022-11-16T21:51:26.888Z,100286.75
2022-11-16T21:53:56.966Z,100284.25
2022-11-16T21:56:26.718Z,100287.50
2022-11-16T21:58:55.148Z,100280.84
2022-11-16T22:01:24.175Z,100293.78
2022-11-16T22:04:06.044Z,100233.69
2022-11-16T22:06:51.085Z,100301.44
2022-11-16T22:09:20.170Z,100290.78
2022-11-16T22:11:48.053Z,100306.22
2022-11-16T22:14:15.810Z,100298.03
2022-11-16T22:16:43.547Z,100297.56
2022-11-16T22:19:11.280Z,100288.31
2022-11-16T22:21:38.992Z,100282.34
2022-11-16T22:24:07.551Z,100293.25
2022-11-16T22:26:37.994Z,100286.97
2022-11-16T22:29:05.665Z,100290.72
2022-11-16T22:31:33.429Z,100293.50
2022-11-16T22:34:01.143Z,100278.34
2022-11-16T22:36:28.881Z,100274.63
2022-11-16T22:38:57.102Z,100262.69
2022-11-16T22:41:24.912Z,100260.19
2022-11-16T22:43:54.194Z,100259.38
2022-11-16T22:46:21.944Z,100259.25
2022-11-16T22:48:49.649Z,100251.44
2022-11-16T22:51:20.158Z,100250.06
2022-11-16T22:53:47.925Z,100259.28
2022-11-16T22:56:15.652Z,100266.25
2022-11-16T22:58:43.449Z,100268.06
2022-11-16T23:01:12.557Z,100262.72
2022-11-16T23:03:40.987Z,100259.34
2022-11-16T23:06:09.432Z,100256.66
2022-11-16T23:08:37.809Z,100262.59
2022-11-16T23:11:24.898Z,100253.34
2022-11-16T23:14:11.401Z,100244.06
2022-11-16T23:16:41.346Z,100254.78
2022-11-16T23:19:24.406Z,100245.75
2022-11-16T23:22:09.438Z,100233.84
2022-11-16T23:24:54.823Z,100230.09
2022-11-16T23:27:31.691Z,100221.81
2022-11-16T23:30:01.369Z,100213.38
2022-11-16T23:32:31.512Z,100217.50
2022-11-16T23:34:59.213Z,100218.31
2022-11-16T23:37:27.121Z,100208.16
2022-11-16T23:39:54.983Z,100136.69
2022-11-16T23:42:40.246Z,100203.59
2022-11-16T23:45:08.472Z,100201.28
2022-11-16T23:47:37.537Z,100189.16
2022-11-16T23:50:06.140Z,100192.81
2022-11-16T23:52:33.819Z,100185.69
2022-11-16T23:55:01.527Z,100193.88
2022-11-16T23:57:29.215Z,100184.91
2022-11-16T23:59:57.714Z,100182.13
